createdAt,value
2023-01-19T00:00:22.706Z,7.85
2023-01-19T00:03:25.138Z,8.20
2023-01-19T00:06:27.536Z,6.40
2023-01-19T00:09:33.540Z,5.57
2023-01-19T00:12:35.502Z,5.50
2023-01-19T00:15:37.656Z,5.45
2023-01-19T00:18:40.104Z,5.18
2023-01-19T00:21:42.100Z,5.23
2023-01-19T00:24:45.096Z,4.45
2023-01-19T00:27:49.591Z,4.28
2023-01-19T00:30:52.289Z,4.05
2023-01-19T00:33:54.315Z,4.10
2023-01-19T00:36:56.416Z,3.88
2023-01-19T00:39:58.609Z,3.90
2023-01-19T00:43:01.134Z,3.17
2023-01-19T00:46:03.719Z,3.30
2023-01-19T00:49:06.052Z,2.10
2023-01-19T00:52:08.144Z,2.93
2023-01-19T00:55:10.955Z,2.90
2023-01-19T00:58:12.903Z,2.50
2023-01-19T01:01:15.319Z,2.50
2023-01-19T01:04:17.411Z,2.50
2023-01-19T01:07:19.455Z,2.38
2023-01-19T01:10:22.876Z,2.15
2023-01-19T01:13:27.459Z,1.40
2023-01-19T01:16:29.916Z,1.83
2023-01-19T01:19:32.296Z,1.73
2023-01-19T01:22:34.229Z,1.90
2023-01-19T01:25:38.011Z,1.58
2023-01-19T01:28:40.067Z,1.60
2023-01-19T01:31:42.094Z,1.48
2023-01-19T01:34:44.412Z,1.60
2023-01-19T01:37:46.425Z,2.15
2023-01-19T01:40:48.463Z,2.50
2023-01-19T01:43:53.479Z,2.10
2023-01-19T01:46:55.705Z,2.45
2023-01-19T01:50:17.950Z,2.17
2023-01-19T01:53:19.882Z,2.23
2023-01-19T01:56:22.390Z,2.78
2023-01-19T01:59:28.333Z,2.97
2023-01-19T02:02:49.431Z,2.60
2023-01-19T02:05:51.426Z,2.50
2023-01-19T02:09:19.083Z,2.40
2023-01-19T02:12:39.852Z,2.55
2023-01-19T02:15:41.802Z,2.43
2023-01-19T02:18:45.264Z,3.10
2023-01-19T02:21:52.836Z,3.03
2023-01-19T02:24:54.848Z,3.60
2023-01-19T02:27:56.829Z,3.33
2023-01-19T02:30:58.838Z,3.08
2023-01-19T02:34:01.172Z,3.25
2023-01-19T02:37:11.450Z,2.80
2023-01-19T02:40:14.519Z,3.80
2023-01-19T02:43:16.581Z,3.47
2023-01-19T02:46:18.552Z,4.27
2023-01-19T02:49:20.709Z,3.90
2023-01-19T02:52:23.067Z,4.32
2023-01-19T02:55:25.616Z,4.50
2023-01-19T02:58:41.647Z,4.82
2023-01-19T03:01:56.304Z,3.97
2023-01-19T03:05:11.470Z,4.00
2023-01-19T03:08:32.258Z,3.60
2023-01-19T03:11:35.334Z,4.32
2023-01-19T03:14:38.401Z,4.05
2023-01-19T03:17:40.361Z,3.87
2023-01-19T03:20:42.712Z,3.97
2023-01-19T03:23:45.388Z,3.70
2023-01-19T03:26:58.818Z,4.33
2023-01-19T03:30:01.938Z,3.50
2023-01-19T03:33:11.885Z,2.97
2023-01-19T03:36:15.500Z,2.92
2023-01-19T03:39:24.521Z,3.00
2023-01-19T03:42:26.608Z,3.10
2023-01-19T03:45:28.673Z,3.78
2023-01-19T03:48:31.472Z,3.63
2023-01-19T03:51:36.006Z,2.75
2023-01-19T03:54:38.492Z,3.25
2023-01-19T03:57:40.921Z,2.70
2023-01-19T04:00:43.119Z,2.67
2023-01-19T04:03:47.194Z,2.45
2023-01-19T04:06:49.736Z,2.97
2023-01-19T04:09:51.794Z,2.90
2023-01-19T04:12:57.172Z,2.33
2023-01-19T04:16:00.180Z,2.25
2023-01-19T04:19:02.331Z,1.90
2023-01-19T04:22:04.921Z,2.38
2023-01-19T04:25:07.686Z,1.95
2023-01-19T04:28:09.606Z,1.70
2023-01-19T04:31:11.672Z,1.90
2023-01-19T04:34:14.330Z,1.63
2023-01-19T04:37:16.434Z,1.95
2023-01-19T04:40:18.396Z,1.98
2023-01-19T04:43:21.023Z,2.13
2023-01-19T04:46:22.953Z,1.80
2023-01-19T04:49:25.394Z,1.97
2023-01-19T04:52:35.003Z,1.40
2023-01-19T04:55:37.560Z,1.60
2023-01-19T04:58:39.669Z,1.73
2023-01-19T05:01:42.106Z,1.75
2023-01-19T05:04:44.061Z,2.25
2023-01-19T05:07:46.004Z,2.53
2023-01-19T05:10:48.073Z,2.28
2023-01-19T05:13:50.990Z,2.10
2023-01-19T05:16:53.456Z,2.75
2023-01-19T05:19:55.491Z,1.93
2023-01-19T05:22:57.929Z,2.17
2023-01-19T05:26:03.409Z,1.88
2023-01-19T05:29:05.554Z,2.40
2023-01-19T05:32:08.048Z,1.90
2023-01-19T05:35:10.132Z,2.03
2023-01-19T05:38:13.606Z,2.70
2023-01-19T05:41:17.891Z,2.53
2023-01-19T05:44:20.146Z,3.28
2023-01-19T05:47:38.467Z,3.20
2023-01-19T05:50:41.169Z,2.80
2023-01-19T05:53:43.429Z,3.10
2023-01-19T05:56:45.645Z,3.00
2023-01-19T05:59:47.720Z,3.40
2023-01-19T06:02:50.275Z,3.20
2023-01-19T06:05:52.741Z,3.35
2023-01-19T06:08:54.912Z,3.38
2023-01-19T06:11:58.017Z,2.33
2023-01-19T06:15:00.543Z,2.35
2023-01-19T06:18:02.602Z,1.50
2023-01-19T06:21:05.828Z,1.87
2023-01-19T06:24:07.920Z,1.70
2023-01-19T06:27:11.280Z,1.50
2023-01-19T06:30:13.790Z,1.60
2023-01-19T06:33:16.716Z,1.55
2023-01-19T06:36:18.754Z,1.42
2023-01-19T06:39:20.748Z,1.30
2023-01-19T06:42:22.761Z,1.38
2023-01-19T06:45:25.283Z,1.52
2023-01-19T06:48:28.040Z,1.58
2023-01-19T06:51:30.098Z,1.20
2023-01-19T06:54:32.726Z,1.08
2023-01-19T06:57:34.799Z,1.10
2023-01-19T07:00:36.817Z,1.17
2023-01-19T07:03:38.924Z,1.30
2023-01-19T07:06:41.879Z,2.33
2023-01-19T07:09:43.903Z,1.50
2023-01-19T07:12:47.466Z,1.40
2023-01-19T07:15:49.654Z,1.50
2023-01-19T07:18:53.533Z,1.70
2023-01-19T07:21:56.023Z,1.70
2023-01-19T07:24:58.929Z,1.98
2023-01-19T07:28:01.457Z,1.90
2023-01-19T07:31:04.157Z,2.50
2023-01-19T07:34:07.075Z,1.90
2023-01-19T07:37:09.318Z,2.17
2023-01-19T07:40:12.746Z,1.80
2023-01-19T07:43:15.631Z,1.60
2023-01-19T07:46:18.214Z,1.80
2023-01-19T07:49:20.707Z,1.80
2023-01-19T07:52:23.176Z,1.80
2023-01-19T07:55:25.622Z,1.83
2023-01-19T07:58:27.608Z,2.33
2023-01-19T08:01:29.942Z,2.93
2023-01-19T08:04:32.464Z,1.55
2023-01-19T08:07:34.615Z,2.58
2023-01-19T08:10:36.635Z,2.00
2023-01-19T08:13:38.987Z,2.65
2023-01-19T08:16:41.052Z,2.58
2023-01-19T08:19:43.485Z,3.17
2023-01-19T08:22:47.224Z,4.03
2023-01-19T08:25:49.676Z,4.20
2023-01-19T08:28:51.843Z,3.30
2023-01-19T08:31:55.532Z,2.67
2023-01-19T08:34:57.788Z,2.75
2023-01-19T08:38:01.734Z,2.50
2023-01-19T08:41:03.889Z,2.92
2023-01-19T08:44:06.486Z,3.30
2023-01-19T08:47:09.128Z,3.75
2023-01-19T08:50:11.609Z,3.50
2023-01-19T08:53:13.745Z,3.70
2023-01-19T08:56:15.843Z,3.47
2023-01-19T08:59:18.051Z,3.55
2023-01-19T09:02:20.261Z,3.60
2023-01-19T09:05:22.758Z,3.75
2023-01-19T09:08:24.983Z,3.78
2023-01-19T09:11:27.600Z,4.45
2023-01-19T09:14:29.804Z,4.78
2023-01-19T09:17:31.891Z,4.70
2023-01-19T09:20:36.274Z,5.22
2023-01-19T09:23:38.319Z,4.77
2023-01-19T09:26:40.821Z,4.28
2023-01-19T09:29:43.980Z,5.45
2023-01-19T09:32:45.930Z,5.67
2023-01-19T09:35:48.464Z,5.38
2023-01-19T09:38:50.476Z,5.72
2023-01-19T09:41:58.950Z,6.32
2023-01-19T09:45:01.555Z,5.25
2023-01-19T09:48:11.428Z,6.03
2023-01-19T09:51:24.054Z,6.82
2023-01-19T09:54:34.180Z,7.60
2023-01-19T09:57:36.239Z,6.78
2023-01-19T10:00:38.903Z,6.95
2023-01-19T10:03:41.074Z,6.67
2023-01-19T10:06:43.161Z,6.85
2023-01-19T10:10:03.723Z,8.38
2023-01-19T10:13:18.175Z,9.23
2023-01-19T10:16:26.847Z,10.20
2023-01-19T10:19:37.544Z,12.27
2023-01-19T10:22:39.969Z,13.43
2023-01-19T10:25:42.705Z,10.83
2023-01-19T10:28:45.616Z,10.50
2023-01-19T10:31:47.716Z,6.75
2023-01-19T10:34:50.046Z,6.50
2023-01-19T10:37:53.134Z,6.45
2023-01-19T10:40:57.913Z,7.68
2023-01-19T10:44:01.124Z,9.82
2023-01-19T10:47:03.206Z,7.68
2023-01-19T10:50:24.243Z,6.32
2023-01-19T10:53:26.876Z,5.78
2023-01-19T10:56:33.095Z,4.47
2023-01-19T10:59:38.400Z,4.03
2023-01-19T11:02:40.904Z,3.92
2023-01-19T11:05:43.320Z,5.37
2023-01-19T11:08:45.794Z,4.18
2023-01-19T11:11:49.461Z,3.65
2023-01-19T11:14:52.399Z,3.30
2023-01-19T11:17:54.404Z,3.88
2023-01-19T11:21:02.335Z,3.35
2023-01-19T11:24:09.022Z,4.45
2023-01-19T11:27:11.077Z,3.90
2023-01-19T11:30:13.215Z,3.72
2023-01-19T11:33:44.881Z,3.22
2023-01-19T11:36:47.530Z,2.73
2023-01-19T11:39:50.855Z,3.63
2023-01-19T11:42:53.284Z,4.35
2023-01-19T11:45:55.873Z,5.10
2023-01-19T11:49:02.867Z,4.50
2023-01-19T11:52:23.649Z,4.60
2023-01-19T11:55:28.568Z,4.28
2023-01-19T11:58:30.760Z,4.30
2023-01-19T12:01:34.222Z,4.05
2023-01-19T12:04:37.263Z,4.50
2023-01-19T12:07:39.520Z,4.40
2023-01-19T12:10:43.659Z,4.30
2023-01-19T12:13:48.349Z,3.38
2023-01-19T12:16:51.252Z,3.88
2023-01-19T12:19:55.657Z,4.38
2023-01-19T12:23:18.471Z,4.43
2023-01-19T12:26:28.549Z,4.07
2023-01-19T12:29:33.056Z,4.87
2023-01-19T12:32:36.795Z,6.07
2023-01-19T12:35:53.880Z,6.25
2023-01-19T12:38:56.955Z,5.90
2023-01-19T12:42:12.689Z,5.38
2023-01-19T12:45:15.260Z,5.68
2023-01-19T12:48:24.014Z,7.05
2023-01-19T12:51:26.748Z,7.72
2023-01-19T12:54:31.614Z,5.20
2023-01-19T12:57:48.998Z,5.15
2023-01-19T13:00:52.111Z,6.50
2023-01-19T13:04:06.812Z,6.28
2023-01-19T13:07:10.662Z,6.63
2023-01-19T13:10:31.325Z,6.03
2023-01-19T13:13:40.263Z,7.25
2023-01-19T13:16:42.615Z,8.63
2023-01-19T13:19:46.190Z,9.50
2023-01-19T13:22:51.206Z,9.93
2023-01-19T13:26:14.125Z,11.25
2023-01-19T13:29:17.771Z,11.48
2023-01-19T13:32:21.500Z,12.50
2023-01-19T13:35:24.008Z,18.95
2023-01-19T13:38:26.530Z,12.75
2023-01-19T13:41:29.842Z,13.03
2023-01-19T13:44:52.492Z,13.25
2023-01-19T13:47:54.938Z,13.38
2023-01-19T13:50:57.781Z,13.27
2023-01-19T13:54:01.722Z,14.30
2023-01-19T13:57:03.860Z,13.48
2023-01-19T14:00:06.614Z,15.80
2023-01-19T14:03:17.912Z,14.37
2023-01-19T14:06:22.477Z,13.38
2023-01-19T14:09:24.574Z,14.73
2023-01-19T14:12:26.657Z,12.10
2023-01-19T14:15:29.126Z,13.82
2023-01-19T14:18:34.786Z,14.60
2023-01-19T14:21:37.585Z,13.50
2023-01-19T14:24:39.905Z,13.63
2023-01-19T14:27:42.065Z,14.40
2023-01-19T14:31:14.070Z,13.50
2023-01-19T14:34:52.066Z,11.83
2023-01-19T14:37:54.184Z,14.90
2023-01-19T14:40:59.413Z,14.82
2023-01-19T14:44:03.234Z,13.97
2023-01-19T14:47:08.653Z,14.02
2023-01-19T14:50:17.693Z,14.00
2023-01-19T14:53:24.316Z,15.15
2023-01-19T14:56:30.412Z,16.25
2023-01-19T14:59:32.700Z,15.43
2023-01-19T15:02:35.195Z,15.52
2023-01-19T15:05:37.745Z,16.20
2023-01-19T15:08:40.230Z,14.10
2023-01-19T15:11:49.317Z,14.82
2023-01-19T15:14:51.338Z,14.50
2023-01-19T15:17:56.044Z,15.35
2023-01-19T15:21:02.980Z,13.73
2023-01-19T15:24:05.221Z,13.02
2023-01-19T15:27:09.534Z,14.95
2023-01-19T15:30:18.281Z,17.02
2023-01-19T15:33:21.519Z,19.33
2023-01-19T15:36:24.965Z,14.67
2023-01-19T15:39:27.364Z,15.90
2023-01-19T15:42:29.366Z,14.80
2023-01-19T15:45:38.281Z,16.63
2023-01-19T15:48:40.780Z,16.60
2023-01-19T15:51:42.990Z,16.90
2023-01-19T15:54:45.120Z,17.10
2023-01-19T15:57:47.542Z,16.42
2023-01-19T16:00:53.151Z,16.52
2023-01-19T16:03:55.152Z,16.13
2023-01-19T16:06:57.117Z,16.23
2023-01-19T16:09:59.421Z,16.80
2023-01-19T16:13:01.680Z,16.58
2023-01-19T16:16:04.635Z,16.53
2023-01-19T16:19:07.153Z,17.58
2023-01-19T16:22:11.105Z,17.77
2023-01-19T16:25:13.318Z,17.38
2023-01-19T16:28:15.395Z,17.77
2023-01-19T16:31:17.929Z,18.70
2023-01-19T16:34:20.493Z,18.00
2023-01-19T16:37:22.467Z,17.73
2023-01-19T16:40:24.517Z,22.70
2023-01-19T16:43:28.286Z,17.48
2023-01-19T16:46:33.858Z,18.33
2023-01-19T16:49:35.985Z,22.40
2023-01-19T16:52:38.610Z,22.45
2023-01-19T16:55:41.520Z,19.10
2023-01-19T16:58:43.598Z,19.25
2023-01-19T17:01:48.108Z,19.48
2023-01-19T17:04:50.490Z,15.90
2023-01-19T17:07:53.034Z,19.37
2023-01-19T17:10:56.150Z,17.88
2023-01-19T17:14:05.329Z,18.08
2023-01-19T17:17:09.366Z,18.10
2023-01-19T17:20:11.887Z,16.65
2023-01-19T17:23:14.041Z,17.50
2023-01-19T17:26:16.415Z,15.88
2023-01-19T17:29:18.465Z,15.23
2023-01-19T17:32:20.447Z,16.30
2023-01-19T17:35:22.498Z,16.92
2023-01-19T17:38:24.587Z,16.50
2023-01-19T17:41:27.818Z,17.08
2023-01-19T17:44:30.345Z,16.58
2023-01-19T17:47:32.347Z,14.37
2023-01-19T17:50:37.351Z,14.07
2023-01-19T17:53:40.180Z,14.65
2023-01-19T17:56:42.678Z,14.73
2023-01-19T17:59:44.847Z,15.10
2023-01-19T18:02:49.056Z,15.25
2023-01-19T18:05:54.733Z,14.50
2023-01-19T18:08:56.817Z,13.63
2023-01-19T18:11:59.211Z,14.55
2023-01-19T18:15:01.639Z,14.45
2023-01-19T18:18:04.295Z,15.40
2023-01-19T18:21:07.657Z,14.75
2023-01-19T18:24:09.796Z,15.43
2023-01-19T18:27:12.031Z,14.75
2023-01-19T18:30:14.809Z,14.73
2023-01-19T18:33:16.885Z,14.95
2023-01-19T18:36:18.912Z,15.45
2023-01-19T18:39:20.983Z,15.07
2023-01-19T18:42:23.253Z,20.30
2023-01-19T18:45:25.410Z,16.95
2023-01-19T18:48:27.894Z,15.83
2023-01-19T18:51:30.228Z,15.43
2023-01-19T18:54:32.347Z,16.55
2023-01-19T18:57:34.916Z,16.58
2023-01-19T19:00:37.391Z,13.73
2023-01-19T19:03:39.351Z,14.52
2023-01-19T19:06:41.540Z,16.63
2023-01-19T19:09:43.547Z,15.23
2023-01-19T19:12:45.580Z,15.32
2023-01-19T19:15:47.646Z,13.80
2023-01-19T19:18:50.159Z,13.97
2023-01-19T19:21:53.655Z,14.35
2023-01-19T19:24:55.636Z,13.32
2023-01-19T19:27:57.622Z,13.13
2023-01-19T19:31:20.590Z,12.73
2023-01-19T19:34:24.653Z,13.00
2023-01-19T19:37:26.634Z,12.50
2023-01-19T19:40:28.659Z,12.67
2023-01-19T19:43:33.753Z,13.80
2023-01-19T19:46:35.723Z,13.38
2023-01-19T19:49:37.660Z,13.50
2023-01-19T19:52:40.741Z,14.65
2023-01-19T19:55:42.679Z,14.25
2023-01-19T19:58:44.747Z,13.45
2023-01-19T20:01:48.496Z,13.70
2023-01-19T20:04:50.636Z,14.50
2023-01-19T20:07:52.605Z,14.45
2023-01-19T20:10:54.712Z,15.73
2023-01-19T20:13:57.204Z,15.85
2023-01-19T20:16:59.780Z,17.02
2023-01-19T20:20:04.395Z,15.33
2023-01-19T20:23:06.496Z,14.90
2023-01-19T20:26:08.751Z,15.18
2023-01-19T20:29:11.126Z,15.18
2023-01-19T20:32:14.243Z,14.20
2023-01-19T20:35:16.339Z,15.57
2023-01-19T20:38:18.353Z,16.08
2023-01-19T20:41:20.662Z,16.17
2023-01-19T20:44:23.173Z,15.25
2023-01-19T20:47:25.939Z,16.85
2023-01-19T20:50:27.931Z,16.07
2023-01-19T20:53:30.179Z,16.58
2023-01-19T20:56:32.487Z,14.52
2023-01-19T20:59:36.897Z,15.43
2023-01-19T21:02:38.968Z,16.30
2023-01-19T21:05:40.919Z,16.60
2023-01-19T21:08:43.481Z,16.23
2023-01-19T21:11:45.979Z,15.40
2023-01-19T21:14:47.972Z,14.30
2023-01-19T21:17:50.397Z,16.17
2023-01-19T21:20:52.593Z,15.47
2023-01-19T21:23:55.692Z,14.63
2023-01-19T21:26:57.635Z,13.20
2023-01-19T21:30:02.319Z,13.45
2023-01-19T21:33:05.200Z,14.45
2023-01-19T21:36:08.237Z,14.40
2023-01-19T21:39:10.420Z,11.88
2023-01-19T21:42:12.522Z,12.37
2023-01-19T21:45:15.290Z,12.63
2023-01-19T21:48:31.141Z,12.73
2023-01-19T21:51:40.353Z,13.93
2023-01-19T21:54:42.969Z,14.27
2023-01-19T21:57:45.445Z,13.50
2023-01-19T22:00:47.582Z,14.20
2023-01-19T22:03:52.785Z,12.63
2023-01-19T22:06:55.175Z,11.68
2023-01-19T22:09:57.549Z,11.68
2023-01-19T22:13:00.130Z,12.07
2023-01-19T22:16:02.512Z,12.48
2023-01-19T22:19:07.408Z,11.60
2023-01-19T22:22:09.729Z,11.90
2023-01-19T22:25:12.165Z,13.05
2023-01-19T22:28:14.701Z,11.73
2023-01-19T22:31:17.538Z,11.52
2023-01-19T22:34:19.625Z,12.10
2023-01-19T22:37:22.009Z,12.43
2023-01-19T22:40:23.984Z,10.73
2023-01-19T22:43:26.304Z,11.40
2023-01-19T22:46:29.468Z,12.45
2023-01-19T22:49:31.484Z,13.98
2023-01-19T22:52:33.858Z,15.00
2023-01-19T22:55:35.866Z,14.48
2023-01-19T22:58:40.393Z,15.82
2023-01-19T23:01:43.053Z,12.88
2023-01-19T23:04:45.388Z,14.35
2023-01-19T23:07:48.103Z,13.85
2023-01-19T23:10:50.476Z,13.98
2023-01-19T23:13:52.600Z,13.03
2023-01-19T23:16:54.937Z,13.43
2023-01-19T23:19:56.918Z,13.63
2023-01-19T23:22:58.855Z,13.57
2023-01-19T23:26:02.097Z,13.27
2023-01-19T23:29:05.584Z,13.57
2023-01-19T23:32:07.838Z,12.65
2023-01-19T23:35:11.023Z,13.50
2023-01-19T23:38:13.117Z,13.40
2023-01-19T23:41:15.065Z,13.20
2023-01-19T23:44:17.550Z,13.47
2023-01-19T23:47:19.648Z,13.82
2023-01-19T23:50:21.653Z,14.57
2023-01-19T23:53:23.599Z,13.83
2023-01-19T23:56:26.946Z,13.48
2023-01-19T23:59:28.870Z,14.02
